Terminal Aerodrome Forecast
Issued by NWS Paducah, KY

Home | Current Version | Previous Version | Graphics & Text | Print | Product List | Glossary On
Versions: 1 2 3 4 5 6 7 8 9 10 11 12 13 14 15 16 17 18 19 20 21 22
232
FTUS43 KPAH 261737
TAFPAH
TAF
KPAH 261737Z 2618/2718 23010G17KT P6SM BKN035
     FM270000 17003KT P6SM SCT040 BKN250
     FM271200 21010KT 5SM -SHRA BR SCT015 OVC030=

USA.gov is the U.S. government's official web portal to all federal, state and local government web resources and services.